Onde está Quinta do Outeirão en Portugal?

 

Quinta do Outeirão está situado na região Santarem em Portugal!

Buscar o nome de uma cidade:

Quinta de São Vicente, Quinns Corner, Quinvuta Primeiro, Quindongo, Quinta da Requeixada

Aqui você vai encontrar a localização de Quinta do Outeirão em um mapa.
Para ver como ele atualmente parece, abaixo estão algumas fotos da região, com webcams online.
Você também pode encontrar a distância para as principais cidades da região e de cidades do resto do Portugal.


Onde está Quinta do Outeirão no mapa?




Webcams perto Quinta do Outeirão

Vasco Carão › South: Garrocheira, Benavente − Airport.


Vasco Carão › South: Garrocheira, Benavente − Airport - Dia
Actual
Vasco Carão › South: Garrocheira, Benavente − Airport - Actual

Benavente › North-East: AIrport, METAR: BENAV 180005Z 36004KT 17/14 Q1015.


Benavente › North-East: AIrport, METAR: BENAV 180005Z 36004KT 17/14 Q1015 - Dia
Actual
Benavente › North-East: AIrport, METAR: BENAV 180005Z 36004KT 17/14 Q1015 - Actual

Abrantes › North-West: › North-West: Zona Alta (Torre).


Abrantes › North-West: › North-West: Zona Alta (Torre) - Dia
Actual
Abrantes › North-West: › North-West: Zona Alta (Torre) - Actual

Webcams provided by webcams.travel


Distâncias

Onde está Quinta do Outeirão em relação a outros lugares?

Top 10 cidades em Santarem e distância de Quinta do Outeirão.

Cidade#Populaçãokmmilhas
Santarém129385106
Entroncamento2198872314
Tomar3191683924
Torres Novas4145262113
Samora Correia5141544729
Abrantes6136464025
Ourém7127293723
Rio Maior8120642717
Fátima9117983522
Almeirim1011556117

Top 10 cidades em Portugal e distância de Quinta do Outeirão.

Cidade # Populaçãokmmilhas
Lisbon15177987949
Porto2249630206128
Amadora31788568050
Braga4121393251156
Setúbal51171098955
Coimbra610658010163
Queluz71033988251
Funchal8980411051653
Vila Nova de Gaia970810203126
Loures10662307144



Info

Estatística e Geografia

Portugal é composta de 15299 cidades em 20 regiões.

A região de Santarem tem 1174 cidades.

Onde está Quinta do Outeirão en Portugal?